createdAt,value
2018-03-04T00:00:37.983Z,123.37
2018-03-04T00:03:05.468Z,125.07
2018-03-04T00:05:32.975Z,127.43
2018-03-04T00:08:00.477Z,124.47
2018-03-04T00:10:27.996Z,120.80
2018-03-04T00:12:55.496Z,123.87
2018-03-04T00:15:23.011Z,110.17
2018-03-04T00:17:50.501Z,121.57
2018-03-04T00:20:18.016Z,118.23
2018-03-04T00:22:45.502Z,114.30
2018-03-04T00:25:13.779Z,135.13
2018-03-04T00:27:41.313Z,118.17
2018-03-04T00:30:08.795Z,128.77
2018-03-04T00:32:36.279Z,140.63
2018-03-04T00:35:03.787Z,158.47
2018-03-04T00:37:31.279Z,143.57
2018-03-04T00:39:58.787Z,117.20
2018-03-04T00:42:26.275Z,116.67
2018-03-04T00:44:53.774Z,126.17
2018-03-04T00:47:21.279Z,121.20
2018-03-04T00:49:48.779Z,115.53
2018-03-04T00:52:16.276Z,114.43
2018-03-04T00:55:01.561Z,133.37
2018-03-04T00:57:29.827Z,134.80
2018-03-04T00:59:57.336Z,126.63
2018-03-04T01:02:24.828Z,126.80
2018-03-04T01:04:52.341Z,123.90
2018-03-04T01:07:19.836Z,127.40
2018-03-04T01:09:47.354Z,119.80
2018-03-04T01:12:14.845Z,119.07
2018-03-04T01:14:42.363Z,134.83
2018-03-04T01:17:09.851Z,131.40
2018-03-04T01:19:37.362Z,133.63
2018-03-04T01:22:04.859Z,123.50
2018-03-04T01:24:32.380Z,124.57
2018-03-04T01:26:59.882Z,121.50
2018-03-04T01:29:28.160Z,119.60
2018-03-04T01:31:55.655Z,127.47
2018-03-04T01:34:23.148Z,129.43
2018-03-04T01:36:50.655Z,121.90
2018-03-04T01:39:18.135Z,114.80
2018-03-04T01:41:45.644Z,130.43
2018-03-04T01:44:13.128Z,116.77
2018-03-04T01:46:40.865Z,129.77
2018-03-04T01:49:08.355Z,125.43
2018-03-04T01:51:47.567Z,126.40
2018-03-04T01:54:15.072Z,123.13
2018-03-04T01:56:42.584Z,119.90
2018-03-04T01:59:10.075Z,122.13
2018-03-04T02:01:37.587Z,138.03
2018-03-04T02:04:05.080Z,135.97
2018-03-04T02:06:32.644Z,129.67
2018-03-04T02:09:00.864Z,115.73
2018-03-04T02:11:28.366Z,124.17
2018-03-04T02:13:56.623Z,123.20
2018-03-04T02:16:24.136Z,123.73
2018-03-04T02:18:52.397Z,120.63
2018-03-04T02:21:19.916Z,107.77
2018-03-04T02:23:47.413Z,124.70
2018-03-04T02:26:14.928Z,121.07
2018-03-04T02:28:43.183Z,119.87
2018-03-04T02:31:10.697Z,122.03
2018-03-04T02:33:38.205Z,119.43
2018-03-04T02:36:05.719Z,118.17
2018-03-04T02:38:33.984Z,120.23
2018-03-04T02:41:01.496Z,129.70
2018-03-04T02:43:28.989Z,124.13
2018-03-04T02:45:56.495Z,132.27
2018-03-04T02:48:23.985Z,136.07
2018-03-04T02:50:52.264Z,135.83
2018-03-04T02:53:19.765Z,139.67
2018-03-04T02:55:47.280Z,120.50
2018-03-04T02:58:14.772Z,127.90
2018-03-04T03:00:42.282Z,120.90
2018-03-04T03:03:09.793Z,122.87
2018-03-04T03:05:37.308Z,132.70
2018-03-04T03:08:05.577Z,130.67
2018-03-04T03:10:33.089Z,134.57
2018-03-04T03:13:00.571Z,137.30
2018-03-04T03:15:28.092Z,139.37
2018-03-04T03:17:55.579Z,139.57
2018-03-04T03:20:23.860Z,137.70
2018-03-04T03:22:51.347Z,119.57
2018-03-04T03:25:19.616Z,142.80
2018-03-04T03:27:47.103Z,129.23
2018-03-04T03:30:14.612Z,125.47
2018-03-04T03:32:42.109Z,131.60
2018-03-04T03:35:09.616Z,130.07
2018-03-04T03:37:37.874Z,132.03
2018-03-04T03:40:05.384Z,121.60
2018-03-04T03:42:32.875Z,111.73
2018-03-04T03:45:00.381Z,124.53
2018-03-04T03:47:27.882Z,117.17
2018-03-04T03:49:56.145Z,129.20
2018-03-04T03:52:23.668Z,125.77
2018-03-04T03:54:51.165Z,121.70
2018-03-04T03:57:18.675Z,146.90
2018-03-04T03:59:46.933Z,125.73
2018-03-04T04:02:14.444Z,123.50
2018-03-04T04:04:42.707Z,114.50
2018-03-04T04:07:10.208Z,132.57
2018-03-04T04:09:38.460Z,127.93
2018-03-04T04:12:05.980Z,128.97
2018-03-04T04:14:33.463Z,132.80
2018-03-04T04:17:00.976Z,131.77
2018-03-04T04:19:28.486Z,133.40
2018-03-04T04:21:56.004Z,135.97
2018-03-04T04:24:23.487Z,122.60
2018-03-04T04:26:51.000Z,115.60
2018-03-04T04:29:18.492Z,128.07
2018-03-04T04:31:46.005Z,143.53
2018-03-04T04:34:13.504Z,148.93
2018-03-04T04:36:41.016Z,137.90
2018-03-04T04:39:08.504Z,129.63
2018-03-04T04:41:36.012Z,121.23
2018-03-04T04:44:03.500Z,140.77
2018-03-04T04:46:31.017Z,131.60
2018-03-04T04:48:58.507Z,134.50
2018-03-04T04:51:26.779Z,126.87
2018-03-04T04:53:54.295Z,132.03
2018-03-04T04:56:21.815Z,126.63
2018-03-04T04:58:49.308Z,135.17
2018-03-04T05:01:17.593Z,122.97
2018-03-04T05:03:45.853Z,131.50
2018-03-04T05:06:13.363Z,126.43
2018-03-04T05:08:41.622Z,124.90
2018-03-04T05:11:09.134Z,130.40
2018-03-04T05:13:36.619Z,124.90
2018-03-04T05:16:04.892Z,137.00
2018-03-04T05:18:32.383Z,134.27
2018-03-04T05:20:59.896Z,122.73
2018-03-04T05:23:27.395Z,131.87
2018-03-04T05:25:54.900Z,131.90
2018-03-04T05:28:22.387Z,128.97
2018-03-04T05:30:49.891Z,114.37
2018-03-04T05:33:18.149Z,137.37
2018-03-04T05:35:45.655Z,143.43
2018-03-04T05:38:13.913Z,135.13
2018-03-04T05:40:41.436Z,120.27
2018-03-04T05:43:08.921Z,138.70
2018-03-04T05:45:36.432Z,130.77
2018-03-04T05:48:03.924Z,125.33
2018-03-04T05:50:32.199Z,131.30
2018-03-04T05:52:59.687Z,130.97
2018-03-04T05:55:27.960Z,124.30
2018-03-04T05:57:55.472Z,125.43
2018-03-04T06:00:22.960Z,123.10
2018-03-04T06:02:50.472Z,131.70
2018-03-04T06:05:18.806Z,127.47
2018-03-04T06:07:46.316Z,133.97
2018-03-04T06:10:13.799Z,127.83
2018-03-04T06:12:41.306Z,125.43
2018-03-04T06:15:08.797Z,120.47
2018-03-04T06:17:36.303Z,123.93
2018-03-04T06:20:03.788Z,135.60
2018-03-04T06:22:32.062Z,121.67
2018-03-04T06:24:59.558Z,125.50
2018-03-04T06:27:27.827Z,129.97
2018-03-04T06:29:55.321Z,131.63
2018-03-04T06:32:22.835Z,125.40
2018-03-04T06:34:50.340Z,126.23
2018-03-04T06:37:18.649Z,125.87
2018-03-04T06:39:46.140Z,119.30
2018-03-04T06:42:14.408Z,117.23
2018-03-04T06:44:46.937Z,132.27
2018-03-04T06:47:14.443Z,121.97
2018-03-04T06:49:41.996Z,123.13
2018-03-04T06:52:19.918Z,122.87
2018-03-04T06:54:47.420Z,131.43
2018-03-04T06:57:15.724Z,123.43
2018-03-04T06:59:43.235Z,122.93
2018-03-04T07:02:10.757Z,126.03
2018-03-04T07:04:38.239Z,134.27
2018-03-04T07:07:05.760Z,112.33
2018-03-04T07:09:33.241Z,121.97
2018-03-04T07:12:01.528Z,116.13
2018-03-04T07:14:29.016Z,122.30
2018-03-04T07:22:42.349Z,124.17
2018-03-04T07:25:09.846Z,127.87
2018-03-04T07:27:37.356Z,132.83
2018-03-04T07:30:05.615Z,122.57
2018-03-04T07:32:33.127Z,110.53
2018-03-04T07:35:00.641Z,120.23
2018-03-04T07:37:28.159Z,124.53
2018-03-04T07:39:56.429Z,115.23
2018-03-04T07:42:23.976Z,132.03
2018-03-04T07:44:51.473Z,118.60
2018-03-04T07:47:19.089Z,126.50
2018-03-04T07:49:47.310Z,116.07
2018-03-04T07:52:14.835Z,115.10
2018-03-04T07:54:42.332Z,116.10
2018-03-04T07:57:09.843Z,120.17
2018-03-04T07:59:37.340Z,114.50
2018-03-04T08:02:04.888Z,130.87
2018-03-04T08:04:32.431Z,120.40
2018-03-04T08:06:59.951Z,122.33
2018-03-04T08:09:27.444Z,131.07
2018-03-04T08:11:54.968Z,114.33
2018-03-04T08:14:28.928Z,121.87
2018-03-04T08:16:56.464Z,128.87
2018-03-04T08:19:23.965Z,114.40
2018-03-04T08:21:51.471Z,128.17
2018-03-04T08:24:30.683Z,115.87
2018-03-04T08:30:08.776Z,112.10
2018-03-04T08:32:36.305Z,106.37
2018-03-04T08:35:03.783Z,116.37
2018-03-04T08:37:31.295Z,124.57
2018-03-04T08:39:58.786Z,114.97
2018-03-04T08:42:26.288Z,113.50
2018-03-04T08:44:53.767Z,122.00
2018-03-04T08:47:42.300Z,124.43
2018-03-04T08:50:10.564Z,120.23
2018-03-04T08:52:38.077Z,115.90
2018-03-04T08:55:05.562Z,124.07
2018-03-04T08:57:33.073Z,110.93
2018-03-04T09:00:00.559Z,114.77
2018-03-04T09:02:28.064Z,115.50
2018-03-04T09:04:55.552Z,124.77
2018-03-04T09:07:23.061Z,111.10
2018-03-04T09:09:50.603Z,149.50
2018-03-04T09:12:18.080Z,113.33
2018-03-04T09:14:45.615Z,108.37
2018-03-04T09:17:13.080Z,114.60
2018-03-04T09:19:40.641Z,107.20
2018-03-04T09:22:08.107Z,108.83
2018-03-04T09:24:36.356Z,120.30
2018-03-04T09:27:03.863Z,103.93
2018-03-04T09:29:32.117Z,100.27
2018-03-04T09:31:59.622Z,104.57
2018-03-04T09:34:27.922Z,118.30
2018-03-04T09:36:55.438Z,101.80
2018-03-04T09:39:22.927Z,115.47
2018-03-04T09:44:44.160Z,97.70
2018-03-04T09:47:12.058Z,94.00
2018-03-04T09:49:39.544Z,106.13
2018-03-04T09:52:07.046Z,99.77
2018-03-04T09:54:34.524Z,98.27
2018-03-04T09:57:02.034Z,95.97
2018-03-04T09:59:29.521Z,89.57
2018-03-04T10:01:57.007Z,94.80
2018-03-04T10:04:25.281Z,97.40
2018-03-04T10:06:53.735Z,157.40
2018-03-04T10:09:21.244Z,91.73
2018-03-04T10:11:48.731Z,86.73
2018-03-04T10:14:16.999Z,84.23
2018-03-04T10:16:44.493Z,81.83
2018-03-04T10:19:12.773Z,92.73
2018-03-04T10:21:41.023Z,81.63
2018-03-04T10:24:08.528Z,78.47
2018-03-04T10:26:36.792Z,78.47
2018-03-04T10:29:04.297Z,73.10
2018-03-04T10:31:32.626Z,72.87
2018-03-04T10:34:00.130Z,73.73
2018-03-04T10:36:27.636Z,64.43
2018-03-04T10:38:55.913Z,67.90
2018-03-04T10:41:24.164Z,56.83
2018-03-04T10:43:51.668Z,63.90
2018-03-04T10:46:19.152Z,64.20
2018-03-04T10:48:47.424Z,63.60
2018-03-04T10:51:14.903Z,61.53
2018-03-04T10:53:43.163Z,56.10
2018-03-04T10:56:10.643Z,63.83
2018-03-04T10:58:40.154Z,64.13
2018-03-04T11:01:10.454Z,54.10
2018-03-04T11:03:37.951Z,58.30
2018-03-04T11:06:05.439Z,55.03
2018-03-04T11:08:32.957Z,61.13
2018-03-04T11:11:00.447Z,54.00
2018-03-04T11:13:27.967Z,55.27
2018-03-04T11:15:56.347Z,51.03
2018-03-04T11:18:23.914Z,52.60
2018-03-04T11:20:51.403Z,55.93
2018-03-04T11:23:19.681Z,50.47
2018-03-04T11:25:47.176Z,52.00
2018-03-04T11:28:15.452Z,53.10
2018-03-04T11:30:43.707Z,48.03
2018-03-04T11:33:11.223Z,46.57
2018-03-04T11:35:39.476Z,48.80
2018-03-04T11:38:06.983Z,48.83
2018-03-04T11:40:35.236Z,48.67
2018-03-04T11:43:02.743Z,42.57
2018-03-04T11:45:30.992Z,37.97
2018-03-04T11:47:58.508Z,42.17
2018-03-04T11:50:27.536Z,47.90
2018-03-04T11:52:55.064Z,45.17
2018-03-04T11:55:22.548Z,46.20
2018-03-04T11:57:50.840Z,42.23
2018-03-04T12:00:18.334Z,41.97
2018-03-04T12:02:45.894Z,45.17
2018-03-04T12:05:13.409Z,47.63
2018-03-04T12:07:40.904Z,48.83
2018-03-04T12:10:08.437Z,43.40
2018-03-04T12:12:36.050Z,65.33
2018-03-04T12:15:03.572Z,53.37
2018-03-04T12:17:31.060Z,48.20
2018-03-04T12:19:58.572Z,38.47
2018-03-04T12:22:26.832Z,40.07
2018-03-04T12:24:54.678Z,44.50
2018-03-04T12:27:22.176Z,43.80
2018-03-04T12:29:49.727Z,41.10
2018-03-04T12:32:17.187Z,45.90
2018-03-04T12:34:44.689Z,41.17
2018-03-04T12:37:12.180Z,43.10
2018-03-04T12:39:39.688Z,42.17
2018-03-04T12:42:07.192Z,46.57
2018-03-04T12:44:34.708Z,47.13
2018-03-04T12:47:02.965Z,45.77
2018-03-04T12:49:30.472Z,46.17
2018-03-04T12:51:57.988Z,41.50
2018-03-04T12:54:25.534Z,42.53
2018-03-04T12:56:53.016Z,54.43
2018-03-04T12:59:20.523Z,52.23
2018-03-04T13:01:48.018Z,46.37
2018-03-04T13:04:16.292Z,44.30
2018-03-04T13:06:43.780Z,39.23
2018-03-04T13:09:13.052Z,43.60
2018-03-04T13:11:40.540Z,44.87
2018-03-04T13:14:08.052Z,38.47
2018-03-04T13:16:35.540Z,42.60
2018-03-04T13:19:03.052Z,38.37
2018-03-04T13:21:30.553Z,47.23
2018-03-04T13:23:58.069Z,45.90
2018-03-04T13:26:25.560Z,52.03
2018-03-04T13:28:53.076Z,54.47
2018-03-04T13:31:20.569Z,55.00
2018-03-04T13:33:48.076Z,52.50
2018-03-04T13:36:15.624Z,51.50
2018-03-04T13:38:43.102Z,58.83
2018-03-04T13:41:10.596Z,55.77
2018-03-04T13:43:38.876Z,61.40
2018-03-04T13:46:06.367Z,57.03
2018-03-04T13:48:34.646Z,57.40
2018-03-04T13:51:02.901Z,68.00
2018-03-04T13:53:30.432Z,63.60
2018-03-04T13:55:57.943Z,58.50
2018-03-04T13:58:25.466Z,59.80
2018-03-04T14:00:52.955Z,61.47
2018-03-04T14:03:20.465Z,65.63
2018-03-04T14:05:47.956Z,59.50
2018-03-04T14:08:16.227Z,71.93
2018-03-04T14:10:43.744Z,69.57
2018-03-04T14:13:11.233Z,61.73
2018-03-04T14:15:39.507Z,66.60
2018-03-04T14:18:06.996Z,69.83
2018-03-04T14:20:34.503Z,65.97
2018-03-04T14:23:01.992Z,58.97
2018-03-04T14:25:30.292Z,64.70
2018-03-04T14:27:57.809Z,58.50
2018-03-04T14:30:25.325Z,71.80
2018-03-04T14:32:52.819Z,58.53
2018-03-04T14:35:20.336Z,62.40
2018-03-04T14:37:47.834Z,60.87
2018-03-04T14:40:15.361Z,60.00
2018-03-04T14:42:42.864Z,61.30
2018-03-04T14:45:11.153Z,57.03
2018-03-04T14:47:39.418Z,57.73
2018-03-04T14:50:10.768Z,64.60
2018-03-04T14:52:52.952Z,59.83
2018-03-04T14:55:20.429Z,57.23
2018-03-04T14:57:47.920Z,59.63
2018-03-04T15:00:15.428Z,58.60
2018-03-04T15:02:42.944Z,58.70
2018-03-04T15:05:10.462Z,57.23
2018-03-04T15:07:37.957Z,57.47
2018-03-04T15:10:05.473Z,65.30
2018-03-04T15:12:32.975Z,55.13
2018-03-04T15:15:01.264Z,50.27
2018-03-04T15:17:29.529Z,54.67
2018-03-04T15:19:57.083Z,51.50
2018-03-04T15:22:24.609Z,49.80
2018-03-04T15:24:52.892Z,48.67
2018-03-04T15:27:24.716Z,52.93
2018-03-04T15:29:52.233Z,55.13
2018-03-04T15:32:20.492Z,52.23
2018-03-04T15:34:48.014Z,49.50
2018-03-04T15:37:15.512Z,48.80
2018-03-04T15:39:43.032Z,51.20
2018-03-04T15:42:11.287Z,54.83
2018-03-04T15:44:38.795Z,53.47
2018-03-04T15:47:07.056Z,51.33
2018-03-04T15:49:34.572Z,47.47
2018-03-04T15:52:02.064Z,52.70
2018-03-04T15:54:29.583Z,59.63
2018-03-04T15:56:57.101Z,51.50
2018-03-04T15:59:24.614Z,50.53
2018-03-04T16:01:52.110Z,50.13
2018-03-04T16:04:20.414Z,45.63
2018-03-04T16:06:47.911Z,49.80
2018-03-04T16:09:15.440Z,49.70
2018-03-04T16:11:43.708Z,56.30
2018-03-04T16:14:11.228Z,51.83
2018-03-04T16:16:38.716Z,49.90
2018-03-04T16:19:06.265Z,55.20
2018-03-04T16:21:33.756Z,55.47
2018-03-04T16:24:01.282Z,56.17
2018-03-04T16:26:29.567Z,64.63
2018-03-04T16:29:00.927Z,56.23
2018-03-04T16:31:29.208Z,49.83
2018-03-04T16:33:58.318Z,49.17
2018-03-04T16:36:26.098Z,46.33
2018-03-04T16:38:54.428Z,39.60
2018-03-04T16:41:21.978Z,41.30
2018-03-04T16:43:49.486Z,39.70
2018-03-04T16:46:17.021Z,37.63
2018-03-04T16:48:44.527Z,37.10
2018-03-04T16:51:12.042Z,41.10
2018-03-04T16:53:40.300Z,35.63
2018-03-04T16:56:07.860Z,43.50
2018-03-04T16:58:35.391Z,36.60
2018-03-04T17:01:02.991Z,35.87
2018-03-04T17:03:30.607Z,33.13
2018-03-04T17:05:58.211Z,38.47
2018-03-04T17:08:26.743Z,35.67
2018-03-04T17:10:55.287Z,31.37
2018-03-04T17:13:22.848Z,34.97
2018-03-04T17:15:52.463Z,31.03
2018-03-04T17:18:20.069Z,36.07
2018-03-04T17:20:47.700Z,27.77
2018-03-04T17:23:15.224Z,35.37
2018-03-04T17:25:42.818Z,28.30
2018-03-04T17:28:10.364Z,27.80
2018-03-04T17:30:37.923Z,30.47
2018-03-04T17:33:05.426Z,26.63
2018-03-04T17:35:32.946Z,29.17
2018-03-04T17:38:00.477Z,26.10
2018-03-04T17:40:28.077Z,27.33
2018-03-04T17:42:55.691Z,29.37
2018-03-04T17:45:23.232Z,30.93
2018-03-04T17:47:51.565Z,25.80
2018-03-04T17:50:20.840Z,24.17
2018-03-04T17:55:36.573Z,24.37
2018-03-04T17:58:07.431Z,24.40
2018-03-04T18:00:40.390Z,23.97
2018-03-04T18:03:09.593Z,25.83
2018-03-04T18:05:39.887Z,26.43
2018-03-04T18:08:07.429Z,24.80
2018-03-04T18:10:35.705Z,26.80
2018-03-04T18:13:03.971Z,23.67
2018-03-04T18:15:31.531Z,26.60
2018-03-04T18:17:58.988Z,25.67
2018-03-04T18:20:26.517Z,21.77
2018-03-04T18:22:54.801Z,33.07
2018-03-04T18:25:22.313Z,30.80
2018-03-04T18:27:49.808Z,28.50
2018-03-04T18:30:17.322Z,29.17
2018-03-04T18:32:45.576Z,26.90
2018-03-04T18:35:13.100Z,26.47
2018-03-04T18:37:40.609Z,25.40
2018-03-04T18:40:08.127Z,21.40
2018-03-04T18:42:36.379Z,25.73
2018-03-04T18:45:03.894Z,24.07
2018-03-04T18:47:31.389Z,29.70
2018-03-04T18:49:58.893Z,26.20
2018-03-04T18:52:26.384Z,25.60
2018-03-04T18:54:54.658Z,26.97
2018-03-04T18:57:22.159Z,22.40
2018-03-04T18:59:49.672Z,29.17
2018-03-04T19:02:17.168Z,23.47
2018-03-04T19:04:44.694Z,27.60
2018-03-04T19:07:12.221Z,22.50
2018-03-04T19:09:39.724Z,37.73
2018-03-04T19:12:07.225Z,29.30
2018-03-04T19:14:34.739Z,24.07
2018-03-04T19:17:02.988Z,25.87
2018-03-04T19:19:30.504Z,27.37
2018-03-04T19:21:58.851Z,27.50
2018-03-04T19:24:26.289Z,22.73
2018-03-04T19:26:53.803Z,33.43
2018-03-04T19:29:21.286Z,28.67
2018-03-04T19:31:48.796Z,31.73
2018-03-04T19:34:16.289Z,25.00
2018-03-04T19:36:43.795Z,37.63
2018-03-04T19:39:12.052Z,24.23
2018-03-04T19:41:39.566Z,32.17
2018-03-04T19:44:07.819Z,37.13
2018-03-04T19:46:35.343Z,29.67
2018-03-04T19:49:02.824Z,37.90
2018-03-04T19:51:30.327Z,33.90
2018-03-04T19:53:57.807Z,34.83
2018-03-04T19:56:25.354Z,34.60
2018-03-04T19:58:52.833Z,34.40
2018-03-04T20:01:20.340Z,37.93
2018-03-04T20:03:48.590Z,33.40
2018-03-04T20:06:16.092Z,35.80
2018-03-04T20:08:43.579Z,38.23
2018-03-04T20:11:11.087Z,34.73
2018-03-04T20:13:38.581Z,38.70
2018-03-04T20:16:06.092Z,31.57
2018-03-04T20:18:34.344Z,33.90
2018-03-04T20:21:01.856Z,32.50
2018-03-04T20:23:29.348Z,37.60
2018-03-04T20:25:56.884Z,42.67
2018-03-04T20:28:24.372Z,35.37
2018-03-04T20:30:51.864Z,33.70
2018-03-04T20:33:19.396Z,35.60
2018-03-04T20:35:47.661Z,36.30
2018-03-04T20:38:15.205Z,37.83
2018-03-04T20:40:42.704Z,37.13
2018-03-04T20:43:10.306Z,36.40
2018-03-04T20:45:38.656Z,37.03
2018-03-04T20:48:06.163Z,32.70
2018-03-04T20:50:33.640Z,39.70
2018-03-04T20:53:01.157Z,34.07
2018-03-04T20:55:28.676Z,35.50
2018-03-04T20:57:56.970Z,39.00
2018-03-04T21:00:24.460Z,39.37
2018-03-04T21:02:51.963Z,39.70
2018-03-04T21:05:24.979Z,35.53
2018-03-04T21:07:52.484Z,31.17
2018-03-04T21:10:19.972Z,34.60
2018-03-04T21:12:47.488Z,38.60
2018-03-04T21:15:14.976Z,35.00
2018-03-04T21:17:43.250Z,36.03
2018-03-04T21:20:10.743Z,39.03
2018-03-04T21:22:39.021Z,36.70
2018-03-04T21:25:07.275Z,34.13
2018-03-04T21:27:34.789Z,37.83
2018-03-04T21:30:03.045Z,41.07
2018-03-04T21:32:30.555Z,37.40
2018-03-04T21:34:58.814Z,44.33
2018-03-04T21:37:26.322Z,35.03
2018-03-04T21:39:53.828Z,37.80
2018-03-04T21:42:21.352Z,35.20
2018-03-04T21:44:49.608Z,43.83
2018-03-04T21:47:17.127Z,33.20
2018-03-04T21:49:44.616Z,36.20
2018-03-04T21:52:12.128Z,31.00
2018-03-04T21:54:39.620Z,30.90
2018-03-04T21:57:17.678Z,35.73
2018-03-04T21:59:45.167Z,33.60
2018-03-04T22:02:12.684Z,33.40
2018-03-04T22:04:40.935Z,32.23
2018-03-04T22:07:08.443Z,36.73
2018-03-04T22:09:35.928Z,30.37
2018-03-04T22:12:03.440Z,35.87
2018-03-04T22:14:30.931Z,29.57
2018-03-04T22:16:58.437Z,27.40
2018-03-04T22:19:25.923Z,35.60
2018-03-04T22:21:53.428Z,32.93
2018-03-04T22:24:20.924Z,33.43
2018-03-04T22:26:59.696Z,28.80
2018-03-04T22:29:27.184Z,31.17
2018-03-04T22:31:54.700Z,38.20
2018-03-04T22:34:22.964Z,29.83
2018-03-04T22:36:50.479Z,30.73
2018-03-04T22:39:17.983Z,34.70
2018-03-04T22:41:45.498Z,35.50
2018-03-04T22:44:13.745Z,28.77
2018-03-04T22:46:41.249Z,29.77
2018-03-04T22:49:08.723Z,38.87
2018-03-04T22:51:37.012Z,32.83
2018-03-04T22:54:04.500Z,31.80
2018-03-04T22:56:31.989Z,35.87
2018-03-04T22:58:59.526Z,41.17
2018-03-04T23:01:26.996Z,35.80
2018-03-04T23:03:55.269Z,38.23
2018-03-04T23:06:22.755Z,32.37
2018-03-04T23:08:51.032Z,32.57
2018-03-04T23:11:18.512Z,37.00
2018-03-04T23:13:46.788Z,34.73
2018-03-04T23:16:14.280Z,39.77
2018-03-04T23:18:53.420Z,35.07
2018-03-04T23:21:21.688Z,40.37
2018-03-04T23:23:49.972Z,33.63
2018-03-04T23:26:17.463Z,36.43
2018-03-04T23:28:45.731Z,35.07
2018-03-04T23:31:13.216Z,38.50
2018-03-04T23:33:41.483Z,36.53
2018-03-04T23:36:08.984Z,32.27
2018-03-04T23:38:37.255Z,35.70
2018-03-04T23:41:04.744Z,32.70
2018-03-04T23:43:33.021Z,41.43
2018-03-04T23:46:01.271Z,36.50
2018-03-04T23:48:28.767Z,45.07
2018-03-04T23:50:56.268Z,40.27
2018-03-04T23:53:23.767Z,34.07
2018-03-04T23:55:51.244Z,35.00
2018-03-04T23:58:18.744Z,37.27
